sensor_id;sensor_type;location;lat;lon;timestamp;temperature;humidity
11963;DHT22;62678;52.130;5.584;2022-09-02T00:00:21;17.00;99.90
11963;DHT22;62678;52.130;5.584;2022-09-02T00:02:48;16.90;99.90
11963;DHT22;62678;52.130;5.584;2022-09-02T00:05:16;16.90;99.90
11963;DHT22;62678;52.130;5.584;2022-09-02T00:07:44;16.90;99.90
11963;DHT22;62678;52.130;5.584;2022-09-02T00:10:11;16.90;99.90
11963;DHT22;62678;52.130;5.584;2022-09-02T00:12:38;16.80;99.90
11963;DHT22;62678;52.130;5.584;2022-09-02T00:15:05;16.70;99.90
11963;DHT22;62678;52.130;5.584;2022-09-02T00:17:33;16.70;99.90
11963;DHT22;62678;52.130;5.584;2022-09-02T00:20:00;16.70;99.90
11963;DHT22;62678;52.130;5.584;2022-09-02T00:22:27;16.60;99.90
11963;DHT22;62678;52.130;5.584;2022-09-02T00:24:54;16.70;99.90
11963;DHT22;62678;52.130;5.584;2022-09-02T00:27:20;16.60;99.90
11963;DHT22;62678;52.130;5.584;2022-09-02T00:29:47;16.60;99.90
11963;DHT22;62678;52.130;5.584;2022-09-02T00:32:14;16.60;99.90
11963;DHT22;62678;52.130;5.584;2022-09-02T00:34:42;16.50;99.90
11963;DHT22;62678;52.130;5.584;2022-09-02T00:37:09;16.50;99.90
11963;DHT22;62678;52.130;5.584;2022-09-02T00:39:37;16.50;99.90
11963;DHT22;62678;52.130;5.584;2022-09-02T00:42:05;16.50;99.90
11963;DHT22;62678;52.130;5.584;2022-09-02T00:44:32;16.50;99.90
11963;DHT22;62678;52.130;5.584;2022-09-02T00:46:59;16.60;99.90
11963;DHT22;62678;52.130;5.584;2022-09-02T00:49:28;16.50;99.90
11963;DHT22;62678;52.130;5.584;2022-09-02T00:52:02;16.50;99.90
11963;DHT22;62678;52.130;5.584;2022-09-02T00:54:31;16.40;99.90
11963;DHT22;62678;52.130;5.584;2022-09-02T00:57:00;16.40;99.90
11963;DHT22;62678;52.130;5.584;2022-09-02T00:59:35;16.40;99.90
11963;DHT22;62678;52.130;5.584;2022-09-02T01:02:05;16.40;99.90
11963;DHT22;62678;52.130;5.584;2022-09-02T01:04:32;16.50;99.90
11963;DHT22;62678;52.130;5.584;2022-09-02T01:07:01;16.50;99.90
11963;DHT22;62678;52.130;5.584;2022-09-02T01:09:30;16.50;99.90
11963;DHT22;62678;52.130;5.584;2022-09-02T01:11:58;16.50;99.90
11963;DHT22;62678;52.130;5.584;2022-09-02T01:14:27;16.50;99.90
11963;DHT22;62678;52.130;5.584;2022-09-02T01:16:57;16.50;99.90
11963;DHT22;62678;52.130;5.584;2022-09-02T01:19:28;16.50;99.90
11963;DHT22;62678;52.130;5.584;2022-09-02T01:21:58;16.50;99.90
11963;DHT22;62678;52.130;5.584;2022-09-02T01:24:27;16.50;99.90
11963;DHT22;62678;52.130;5.584;2022-09-02T01:26:57;16.40;99.90
11963;DHT22;62678;52.130;5.584;2022-09-02T01:29:26;16.40;99.90
11963;DHT22;62678;52.130;5.584;2022-09-02T01:31:53;16.40;99.90
11963;DHT22;62678;52.130;5.584;2022-09-02T01:34:20;16.40;99.90
11963;DHT22;62678;52.130;5.584;2022-09-02T01:36:47;16.30;99.90
11963;DHT22;62678;52.130;5.584;2022-09-02T01:39:15;16.30;99.90
11963;DHT22;62678;52.130;5.584;2022-09-02T01:41:43;16.40;99.90
11963;DHT22;62678;52.130;5.584;2022-09-02T01:44:10;16.30;99.90
11963;DHT22;62678;52.130;5.584;2022-09-02T01:46:37;16.30;99.90
11963;DHT22;62678;52.130;5.584;2022-09-02T01:49:04;16.20;99.90
11963;DHT22;62678;52.130;5.584;2022-09-02T01:51:31;16.20;99.90
11963;DHT22;62678;52.130;5.584;2022-09-02T01:53:57;16.20;99.90
11963;DHT22;62678;52.130;5.584;2022-09-02T01:56:26;16.10;99.90
11963;DHT22;62678;52.130;5.584;2022-09-02T01:58:52;16.10;99.90
11963;DHT22;62678;52.130;5.584;2022-09-02T02:01:20;16.20;99.90
11963;DHT22;62678;52.130;5.584;2022-09-02T02:03:47;16.10;99.90
11963;DHT22;62678;52.130;5.584;2022-09-02T02:06:15;16.20;99.90
11963;DHT22;62678;52.130;5.584;2022-09-02T02:08:43;16.10;99.90
11963;DHT22;62678;52.130;5.584;2022-09-02T02:11:10;16.10;99.90
11963;DHT22;62678;52.130;5.584;2022-09-02T02:13:38;16.10;99.90
11963;DHT22;62678;52.130;5.584;2022-09-02T02:16:05;16.00;99.90
11963;DHT22;62678;52.130;5.584;2022-09-02T02:18:32;16.00;99.90
11963;DHT22;62678;52.130;5.584;2022-09-02T02:20:59;15.90;99.90
11963;DHT22;62678;52.130;5.584;2022-09-02T02:23:25;15.90;99.90
11963;DHT22;62678;52.130;5.584;2022-09-02T02:25:52;15.80;99.90
11963;DHT22;62678;52.130;5.584;2022-09-02T02:28:19;15.80;99.90
11963;DHT22;62678;52.130;5.584;2022-09-02T02:30:47;15.90;99.90
11963;DHT22;62678;52.130;5.584;2022-09-02T02:33:14;15.80;99.90
11963;DHT22;62678;52.130;5.584;2022-09-02T02:35:41;15.80;99.90
11963;DHT22;62678;52.130;5.584;2022-09-02T02:38:08;15.80;99.90
11963;DHT22;62678;52.130;5.584;2022-09-02T02:40:36;15.80;99.90
11963;DHT22;62678;52.130;5.584;2022-09-02T02:43:03;15.80;99.90
11963;DHT22;62678;52.130;5.584;2022-09-02T02:45:29;15.80;99.90
11963;DHT22;62678;52.130;5.584;2022-09-02T02:47:57;15.70;99.90
11963;DHT22;62678;52.130;5.584;2022-09-02T02:50:24;15.60;99.90
11963;DHT22;62678;52.130;5.584;2022-09-02T02:52:52;15.60;99.90
11963;DHT22;62678;52.130;5.584;2022-09-02T02:55:20;15.60;99.90
11963;DHT22;62678;52.130;5.584;2022-09-02T02:57:47;15.60;99.90
11963;DHT22;62678;52.130;5.584;2022-09-02T03:00:16;15.60;99.90
11963;DHT22;62678;52.130;5.584;2022-09-02T03:02:43;15.60;99.90
11963;DHT22;62678;52.130;5.584;2022-09-02T03:05:13;15.60;99.90
11963;DHT22;62678;52.130;5.584;2022-09-02T03:07:40;15.60;99.90
11963;DHT22;62678;52.130;5.584;2022-09-02T03:10:08;15.60;99.90
11963;DHT22;62678;52.130;5.584;2022-09-02T03:12:36;15.60;99.90
11963;DHT22;62678;52.130;5.584;2022-09-02T03:15:04;15.60;99.90
11963;DHT22;62678;52.130;5.584;2022-09-02T03:17:32;15.60;99.90
11963;DHT22;62678;52.130;5.584;2022-09-02T03:19:59;15.60;99.90
11963;DHT22;62678;52.130;5.584;2022-09-02T03:22:27;15.60;99.90
11963;DHT22;62678;52.130;5.584;2022-09-02T03:24:54;15.60;99.90
11963;DHT22;62678;52.130;5.584;2022-09-02T03:27:21;15.50;99.90
11963;DHT22;62678;52.130;5.584;2022-09-02T03:29:47;15.50;99.90
11963;DHT22;62678;52.130;5.584;2022-09-02T03:32:14;15.50;99.90
11963;DHT22;62678;52.130;5.584;2022-09-02T03:34:41;15.50;99.90
11963;DHT22;62678;52.130;5.584;2022-09-02T03:37:08;15.60;99.90
11963;DHT22;62678;52.130;5.584;2022-09-02T03:39:36;15.60;99.90
11963;DHT22;62678;52.130;5.584;2022-09-02T03:42:04;15.60;99.90
11963;DHT22;62678;52.130;5.584;2022-09-02T03:44:31;15.60;99.90
11963;DHT22;62678;52.130;5.584;2022-09-02T03:46:58;15.60;99.90
11963;DHT22;62678;52.130;5.584;2022-09-02T03:49:25;15.60;99.90
11963;DHT22;62678;52.130;5.584;2022-09-02T03:51:52;15.50;99.90
11963;DHT22;62678;52.130;5.584;2022-09-02T03:54:19;15.50;99.90
11963;DHT22;62678;52.130;5.584;2022-09-02T03:56:47;15.50;99.90
11963;DHT22;62678;52.130;5.584;2022-09-02T03:59:14;15.50;99.90
11963;DHT22;62678;52.130;5.584;2022-09-02T04:01:41;15.50;99.90
11963;DHT22;62678;52.130;5.584;2022-09-02T04:04:08;15.50;99.90
11963;DHT22;62678;52.130;5.584;2022-09-02T04:06:35;15.50;99.90
11963;DHT22;62678;52.130;5.584;2022-09-02T04:09:03;15.40;99.90
11963;DHT22;62678;52.130;5.584;2022-09-02T04:11:30;15.40;99.90
11963;DHT22;62678;52.130;5.584;2022-09-02T04:13:58;15.40;99.90
11963;DHT22;62678;52.130;5.584;2022-09-02T04:16:25;15.40;99.90
11963;DHT22;62678;52.130;5.584;2022-09-02T04:18:53;15.50;99.90
11963;DHT22;62678;52.130;5.584;2022-09-02T04:21:20;15.40;99.90
11963;DHT22;62678;52.130;5.584;2022-09-02T04:23:46;15.50;99.90
11963;DHT22;62678;52.130;5.584;2022-09-02T04:26:15;15.40;99.90
11963;DHT22;62678;52.130;5.584;2022-09-02T04:28:43;15.40;99.90
11963;DHT22;62678;52.130;5.584;2022-09-02T04:31:13;15.50;99.90
11963;DHT22;62678;52.130;5.584;2022-09-02T04:33:40;15.50;99.90
11963;DHT22;62678;52.130;5.584;2022-09-02T04:36:09;15.40;99.90
11963;DHT22;62678;52.130;5.584;2022-09-02T04:38:36;15.40;99.90
11963;DHT22;62678;52.130;5.584;2022-09-02T04:41:05;15.30;99.90
11963;DHT22;62678;52.130;5.584;2022-09-02T04:43:32;15.30;99.90
11963;DHT22;62678;52.130;5.584;2022-09-02T04:46:02;15.30;99.90
11963;DHT22;62678;52.130;5.584;2022-09-02T04:48:32;15.40;99.90
11963;DHT22;62678;52.130;5.584;2022-09-02T04:51:03;15.40;99.90
11963;DHT22;62678;52.130;5.584;2022-09-02T04:53:32;15.30;99.90
11963;DHT22;62678;52.130;5.584;2022-09-02T04:56:02;15.30;99.90
11963;DHT22;62678;52.130;5.584;2022-09-02T04:58:29;15.30;99.90
11963;DHT22;62678;52.130;5.584;2022-09-02T05:00:56;15.30;99.90
11963;DHT22;62678;52.130;5.584;2022-09-02T05:03:23;15.30;99.90
11963;DHT22;62678;52.130;5.584;2022-09-02T05:06:02;15.30;99.90
11963;DHT22;62678;52.130;5.584;2022-09-02T05:08:29;15.30;99.90
11963;DHT22;62678;52.130;5.584;2022-09-02T05:10:56;15.30;99.90
11963;DHT22;62678;52.130;5.584;2022-09-02T05:13:23;15.30;99.90
11963;DHT22;62678;52.130;5.584;2022-09-02T05:15:50;15.30;99.90
11963;DHT22;62678;52.130;5.584;2022-09-02T05:18:17;15.40;99.90
11963;DHT22;62678;52.130;5.584;2022-09-02T05:20:44;15.30;99.90
11963;DHT22;62678;52.130;5.584;2022-09-02T05:23:12;15.30;99.90
11963;DHT22;62678;52.130;5.584;2022-09-02T05:25:39;15.40;99.90
11963;DHT22;62678;52.130;5.584;2022-09-02T05:28:07;15.40;99.90
11963;DHT22;62678;52.130;5.584;2022-09-02T05:30:34;15.50;99.90
11963;DHT22;62678;52.130;5.584;2022-09-02T05:33:01;15.50;99.90
11963;DHT22;62678;52.130;5.584;2022-09-02T05:35:28;15.50;99.90
11963;DHT22;62678;52.130;5.584;2022-09-02T05:37:55;15.50;99.90
11963;DHT22;62678;52.130;5.584;2022-09-02T05:40:24;15.60;99.90
11963;DHT22;62678;52.130;5.584;2022-09-02T05:42:51;15.70;99.90
11963;DHT22;62678;52.130;5.584;2022-09-02T05:45:18;15.80;99.90
11963;DHT22;62678;52.130;5.584;2022-09-02T05:47:45;15.90;99.90
11963;DHT22;62678;52.130;5.584;2022-09-02T05:50:11;15.90;99.90
11963;DHT22;62678;52.130;5.584;2022-09-02T05:52:39;16.00;99.90
11963;DHT22;62678;52.130;5.584;2022-09-02T05:55:06;16.00;99.90
11963;DHT22;62678;52.130;5.584;2022-09-02T05:57:35;16.10;99.90
11963;DHT22;62678;52.130;5.584;2022-09-02T06:00:04;16.10;99.90
11963;DHT22;62678;52.130;5.584;2022-09-02T06:02:33;16.20;99.90
11963;DHT22;62678;52.130;5.584;2022-09-02T06:05:01;16.20;99.90
11963;DHT22;62678;52.130;5.584;2022-09-02T06:07:30;16.20;99.90
11963;DHT22;62678;52.130;5.584;2022-09-02T06:09:57;16.30;99.90
11963;DHT22;62678;52.130;5.584;2022-09-02T06:12:28;16.40;99.90
11963;DHT22;62678;52.130;5.584;2022-09-02T06:14:59;16.50;99.90
11963;DHT22;62678;52.130;5.584;2022-09-02T06:17:27;16.70;99.90
11963;DHT22;62678;52.130;5.584;2022-09-02T06:19:54;16.70;99.90
11963;DHT22;62678;52.130;5.584;2022-09-02T06:22:20;16.90;99.90
11963;DHT22;62678;52.130;5.584;2022-09-02T06:24:47;16.90;99.90
11963;DHT22;62678;52.130;5.584;2022-09-02T06:27:14;17.00;99.90
11963;DHT22;62678;52.130;5.584;2022-09-02T06:29:41;17.00;99.90
11963;DHT22;62678;52.130;5.584;2022-09-02T06:32:09;17.00;99.90
11963;DHT22;62678;52.130;5.584;2022-09-02T06:34:35;17.10;99.90
11963;DHT22;62678;52.130;5.584;2022-09-02T06:37:04;17.20;99.90
11963;DHT22;62678;52.130;5.584;2022-09-02T06:39:30;17.20;99.90
11963;DHT22;62678;52.130;5.584;2022-09-02T06:41:57;17.10;99.90
11963;DHT22;62678;52.130;5.584;2022-09-02T06:44:24;17.10;99.90
11963;DHT22;62678;52.130;5.584;2022-09-02T06:46:55;17.20;99.90
11963;DHT22;62678;52.130;5.584;2022-09-02T06:49:25;17.30;99.90
11963;DHT22;62678;52.130;5.584;2022-09-02T06:51:53;17.20;99.90
11963;DHT22;62678;52.130;5.584;2022-09-02T06:54:21;17.10;99.90
11963;DHT22;62678;52.130;5.584;2022-09-02T06:56:49;17.20;99.90
11963;DHT22;62678;52.130;5.584;2022-09-02T06:59:17;17.10;99.90
11963;DHT22;62678;52.130;5.584;2022-09-02T07:01:45;17.20;99.90
11963;DHT22;62678;52.130;5.584;2022-09-02T07:04:12;17.30;99.90
11963;DHT22;62678;52.130;5.584;2022-09-02T07:06:57;17.30;99.90
11963;DHT22;62678;52.130;5.584;2022-09-02T07:09:26;17.50;99.90
11963;DHT22;62678;52.130;5.584;2022-09-02T07:11:56;17.40;99.90
11963;DHT22;62678;52.130;5.584;2022-09-02T07:14:23;17.30;99.90
11963;DHT22;62678;52.130;5.584;2022-09-02T07:16:53;17.20;99.90
11963;DHT22;62678;52.130;5.584;2022-09-02T07:19:22;17.30;99.90
11963;DHT22;62678;52.130;5.584;2022-09-02T07:21:49;17.40;99.90
11963;DHT22;62678;52.130;5.584;2022-09-02T07:24:17;17.70;99.90
11963;DHT22;62678;52.130;5.584;2022-09-02T07:26:44;17.80;99.90
11963;DHT22;62678;52.130;5.584;2022-09-02T07:29:11;17.90;99.90
11963;DHT22;62678;52.130;5.584;2022-09-02T07:31:40;17.90;99.90
11963;DHT22;62678;52.130;5.584;2022-09-02T07:34:08;18.10;99.90
11963;DHT22;62678;52.130;5.584;2022-09-02T07:36:35;18.20;99.90
11963;DHT22;62678;52.130;5.584;2022-09-02T07:39:03;18.40;99.90
11963;DHT22;62678;52.130;5.584;2022-09-02T07:41:32;18.60;99.90
11963;DHT22;62678;52.130;5.584;2022-09-02T07:43:58;19.10;99.90
11963;DHT22;62678;52.130;5.584;2022-09-02T07:46:25;19.20;99.90
11963;DHT22;62678;52.130;5.584;2022-09-02T07:48:54;19.50;99.90
11963;DHT22;62678;52.130;5.584;2022-09-02T07:51:21;19.80;99.90
11963;DHT22;62678;52.130;5.584;2022-09-02T07:53:48;20.00;99.90
11963;DHT22;62678;52.130;5.584;2022-09-02T07:56:16;20.10;99.90
11963;DHT22;62678;52.130;5.584;2022-09-02T07:58:45;20.30;99.90
11963;DHT22;62678;52.130;5.584;2022-09-02T08:01:13;20.40;99.90
11963;DHT22;62678;52.130;5.584;2022-09-02T08:03:41;20.30;99.90
11963;DHT22;62678;52.130;5.584;2022-09-02T08:06:09;20.20;99.90
11963;DHT22;62678;52.130;5.584;2022-09-02T08:08:36;20.20;99.90
11963;DHT22;62678;52.130;5.584;2022-09-02T08:11:03;20.40;99.90
11963;DHT22;62678;52.130;5.584;2022-09-02T08:13:31;20.40;99.90
11963;DHT22;62678;52.130;5.584;2022-09-02T08:15:59;20.40;99.90
11963;DHT22;62678;52.130;5.584;2022-09-02T08:18:27;20.60;99.90
11963;DHT22;62678;52.130;5.584;2022-09-02T08:20:53;20.80;99.90
11963;DHT22;62678;52.130;5.584;2022-09-02T08:23:20;20.60;99.90
11963;DHT22;62678;52.130;5.584;2022-09-02T08:25:47;20.70;99.90
11963;DHT22;62678;52.130;5.584;2022-09-02T08:28:14;20.80;99.90
11963;DHT22;62678;52.130;5.584;2022-09-02T08:30:50;20.70;99.90
11963;DHT22;62678;52.130;5.584;2022-09-02T08:33:19;20.90;99.90
11963;DHT22;62678;52.130;5.584;2022-09-02T08:35:46;20.80;99.90
11963;DHT22;62678;52.130;5.584;2022-09-02T08:38:13;20.80;99.90
11963;DHT22;62678;52.130;5.584;2022-09-02T08:40:41;20.70;99.90
11963;DHT22;62678;52.130;5.584;2022-09-02T08:43:25;20.90;99.90
11963;DHT22;62678;52.130;5.584;2022-09-02T08:45:55;21.10;99.90
11963;DHT22;62678;52.130;5.584;2022-09-02T08:48:32;21.20;99.90
11963;DHT22;62678;52.130;5.584;2022-09-02T08:51:03;21.30;99.90
11963;DHT22;62678;52.130;5.584;2022-09-02T08:53:35;21.30;99.90
11963;DHT22;62678;52.130;5.584;2022-09-02T08:56:07;21.30;99.90
11963;DHT22;62678;52.130;5.584;2022-09-02T08:58:39;21.50;99.90
11963;DHT22;62678;52.130;5.584;2022-09-02T09:01:09;21.60;99.90
11963;DHT22;62678;52.130;5.584;2022-09-02T09:03:56;21.70;99.90
11963;DHT22;62678;52.130;5.584;2022-09-02T09:06:35;21.70;99.90
11963;DHT22;62678;52.130;5.584;2022-09-02T09:09:11;22.00;99.90
11963;DHT22;62678;52.130;5.584;2022-09-02T09:11:44;22.10;99.90
11963;DHT22;62678;52.130;5.584;2022-09-02T09:14:18;22.30;99.90
11963;DHT22;62678;52.130;5.584;2022-09-02T09:16:52;22.50;99.90
11963;DHT22;62678;52.130;5.584;2022-09-02T09:19:31;22.50;99.90
11963;DHT22;62678;52.130;5.584;2022-09-02T09:22:01;22.50;99.90
11963;DHT22;62678;52.130;5.584;2022-09-02T09:24:33;22.30;99.90
11963;DHT22;62678;52.130;5.584;2022-09-02T09:27:01;22.50;99.90
11963;DHT22;62678;52.130;5.584;2022-09-02T09:29:31;22.70;99.90
11963;DHT22;62678;52.130;5.584;2022-09-02T09:31:59;23.00;99.90
11963;DHT22;62678;52.130;5.584;2022-09-02T09:34:55;23.10;99.90
11963;DHT22;62678;52.130;5.584;2022-09-02T09:37:30;23.10;99.90
11963;DHT22;62678;52.130;5.584;2022-09-02T09:39:57;23.10;99.90
11963;DHT22;62678;52.130;5.584;2022-09-02T09:42:32;23.00;99.90
11963;DHT22;62678;52.130;5.584;2022-09-02T09:45:01;23.40;99.90
11963;DHT22;62678;52.130;5.584;2022-09-02T09:47:40;23.50;99.90
11963;DHT22;62678;52.130;5.584;2022-09-02T09:50:13;23.90;99.90
11963;DHT22;62678;52.130;5.584;2022-09-02T09:52:41;24.20;99.90
11963;DHT22;62678;52.130;5.584;2022-09-02T09:55:17;24.20;99.90
11963;DHT22;62678;52.130;5.584;2022-09-02T09:57:45;24.40;99.90
11963;DHT22;62678;52.130;5.584;2022-09-02T10:00:20;24.50;99.90
11963;DHT22;62678;52.130;5.584;2022-09-02T10:02:49;24.30;99.90
11963;DHT22;62678;52.130;5.584;2022-09-02T10:05:27;24.40;99.90
11963;DHT22;62678;52.130;5.584;2022-09-02T10:07:57;24.50;99.90
11963;DHT22;62678;52.130;5.584;2022-09-02T10:10:26;24.60;99.90
11963;DHT22;62678;52.130;5.584;2022-09-02T10:12:56;24.50;99.90
11963;DHT22;62678;52.130;5.584;2022-09-02T10:15:30;24.40;99.90
11963;DHT22;62678;52.130;5.584;2022-09-02T10:18:14;24.70;99.90
11963;DHT22;62678;52.130;5.584;2022-09-02T10:20:54;24.60;99.90
11963;DHT22;62678;52.130;5.584;2022-09-02T10:23:40;24.60;99.90
11963;DHT22;62678;52.130;5.584;2022-09-02T10:26:19;24.70;99.90
11963;DHT22;62678;52.130;5.584;2022-09-02T10:29:11;24.90;99.90
11963;DHT22;62678;52.130;5.584;2022-09-02T10:31:50;24.80;99.90
11963;DHT22;62678;52.130;5.584;2022-09-02T10:34:25;25.00;99.90
11963;DHT22;62678;52.130;5.584;2022-09-02T10:37:09;25.20;99.90
11963;DHT22;62678;52.130;5.584;2022-09-02T10:39:56;25.30;99.90
11963;DHT22;62678;52.130;5.584;2022-09-02T10:42:32;25.40;99.90
11963;DHT22;62678;52.130;5.584;2022-09-02T10:45:05;25.40;99.90
11963;DHT22;62678;52.130;5.584;2022-09-02T10:47:36;25.30;99.90
11963;DHT22;62678;52.130;5.584;2022-09-02T10:50:11;25.30;99.90
11963;DHT22;62678;52.130;5.584;2022-09-02T10:52:53;25.40;99.90
11963;DHT22;62678;52.130;5.584;2022-09-02T10:55:29;25.60;99.90
11963;DHT22;62678;52.130;5.584;2022-09-02T10:58:03;25.70;99.90
11963;DHT22;62678;52.130;5.584;2022-09-02T11:00:33;25.70;99.90
11963;DHT22;62678;52.130;5.584;2022-09-02T11:03:06;25.60;99.90
11963;DHT22;62678;52.130;5.584;2022-09-02T11:05:41;25.50;99.90
11963;DHT22;62678;52.130;5.584;2022-09-02T11:08:12;25.60;99.90
11963;DHT22;62678;52.130;5.584;2022-09-02T11:10:48;25.80;99.90
11963;DHT22;62678;52.130;5.584;2022-09-02T11:13:23;25.70;99.90
11963;DHT22;62678;52.130;5.584;2022-09-02T11:15:54;25.90;99.90
11963;DHT22;62678;52.130;5.584;2022-09-02T11:18:29;26.00;99.90
11963;DHT22;62678;52.130;5.584;2022-09-02T11:21:03;26.00;99.90
11963;DHT22;62678;52.130;5.584;2022-09-02T11:23:40;26.00;99.90
11963;DHT22;62678;52.130;5.584;2022-09-02T11:26:12;26.10;99.90
11963;DHT22;62678;52.130;5.584;2022-09-02T11:28:47;26.10;99.90
11963;DHT22;62678;52.130;5.584;2022-09-02T11:31:23;26.20;99.90
11963;DHT22;62678;52.130;5.584;2022-09-02T11:33:54;26.20;99.90
11963;DHT22;62678;52.130;5.584;2022-09-02T11:36:24;26.20;99.90
11963;DHT22;62678;52.130;5.584;2022-09-02T11:38:56;26.50;99.90
11963;DHT22;62678;52.130;5.584;2022-09-02T11:41:29;26.90;99.90
11963;DHT22;62678;52.130;5.584;2022-09-02T11:44:10;27.00;99.90
11963;DHT22;62678;52.130;5.584;2022-09-02T11:47:05;27.00;99.90
11963;DHT22;62678;52.130;5.584;2022-09-02T11:49:56;27.10;99.90
11963;DHT22;62678;52.130;5.584;2022-09-02T11:52:43;27.10;99.90
11963;DHT22;62678;52.130;5.584;2022-09-02T11:55:18;27.10;99.90
11963;DHT22;62678;52.130;5.584;2022-09-02T11:57:51;27.30;99.90
11963;DHT22;62678;52.130;5.584;2022-09-02T12:00:27;27.30;99.90
11963;DHT22;62678;52.130;5.584;2022-09-02T12:03:08;27.30;99.90
11963;DHT22;62678;52.130;5.584;2022-09-02T12:08:57;27.20;99.90
11963;DHT22;62678;52.130;5.584;2022-09-02T12:11:41;26.90;99.90
11963;DHT22;62678;52.130;5.584;2022-09-02T12:14:11;26.90;99.90
11963;DHT22;62678;52.130;5.584;2022-09-02T12:16:59;26.90;99.90
11963;DHT22;62678;52.130;5.584;2022-09-02T12:19:40;26.70;99.90
11963;DHT22;62678;52.130;5.584;2022-09-02T12:22:30;26.90;99.90
11963;DHT22;62678;52.130;5.584;2022-09-02T12:24:58;27.00;99.90
11963;DHT22;62678;52.130;5.584;2022-09-02T12:27:32;27.20;99.90
11963;DHT22;62678;52.130;5.584;2022-09-02T12:30:02;27.10;99.90
11963;DHT22;62678;52.130;5.584;2022-09-02T12:35:52;26.70;99.90
11963;DHT22;62678;52.130;5.584;2022-09-02T12:38:27;26.60;99.90
11963;DHT22;62678;52.130;5.584;2022-09-02T12:40:59;27.20;99.90
11963;DHT22;62678;52.130;5.584;2022-09-02T12:43:33;27.50;99.90
11963;DHT22;62678;52.130;5.584;2022-09-02T12:46:09;27.60;99.90
11963;DHT22;62678;52.130;5.584;2022-09-02T12:48:41;27.30;99.90
11963;DHT22;62678;52.130;5.584;2022-09-02T12:51:09;27.00;99.90
11963;DHT22;62678;52.130;5.584;2022-09-02T12:53:39;27.00;99.90
11963;DHT22;62678;52.130;5.584;2022-09-02T12:56:18;27.10;99.90
11963;DHT22;62678;52.130;5.584;2022-09-02T12:58:49;27.40;99.90
11963;DHT22;62678;52.130;5.584;2022-09-02T13:01:20;27.60;99.90
11963;DHT22;62678;52.130;5.584;2022-09-02T13:04:05;27.40;99.90
11963;DHT22;62678;52.130;5.584;2022-09-02T13:07:04;27.60;99.90
11963;DHT22;62678;52.130;5.584;2022-09-02T13:09:58;27.70;99.90
11963;DHT22;62678;52.130;5.584;2022-09-02T13:48:17;26.90;99.90
11963;DHT22;62678;52.130;5.584;2022-09-02T13:50:46;26.80;99.90
11963;DHT22;62678;52.130;5.584;2022-09-02T13:53:24;26.80;99.90
11963;DHT22;62678;52.130;5.584;2022-09-02T13:55:54;26.80;99.90
11963;DHT22;62678;52.130;5.584;2022-09-02T13:58:35;26.80;99.90
11963;DHT22;62678;52.130;5.584;2022-09-02T14:01:22;27.00;99.90
11963;DHT22;62678;52.130;5.584;2022-09-02T14:03:52;27.30;99.90
11963;DHT22;62678;52.130;5.584;2022-09-02T14:06:21;27.30;99.90
11963;DHT22;62678;52.130;5.584;2022-09-02T14:08:50;27.20;99.90
11963;DHT22;62678;52.130;5.584;2022-09-02T14:11:18;27.10;99.90
11963;DHT22;62678;52.130;5.584;2022-09-02T14:13:47;27.20;99.90
11963;DHT22;62678;52.130;5.584;2022-09-02T14:16:28;27.00;99.90
11963;DHT22;62678;52.130;5.584;2022-09-02T14:19:07;27.00;99.90
11963;DHT22;62678;52.130;5.584;2022-09-02T14:21:36;27.00;99.90
11963;DHT22;62678;52.130;5.584;2022-09-02T14:24:04;26.80;99.90
11963;DHT22;62678;52.130;5.584;2022-09-02T14:26:34;26.80;99.90
11963;DHT22;62678;52.130;5.584;2022-09-02T14:29:04;26.90;99.90
11963;DHT22;62678;52.130;5.584;2022-09-02T14:31:32;27.20;99.90
11963;DHT22;62678;52.130;5.584;2022-09-02T14:33:59;27.50;99.90
11963;DHT22;62678;52.130;5.584;2022-09-02T14:36:33;27.70;99.90
11963;DHT22;62678;52.130;5.584;2022-09-02T14:39:13;27.70;99.90
11963;DHT22;62678;52.130;5.584;2022-09-02T14:41:46;27.50;99.90
11963;DHT22;62678;52.130;5.584;2022-09-02T14:44:17;27.50;99.90
11963;DHT22;62678;52.130;5.584;2022-09-02T14:46:48;27.50;99.90
11963;DHT22;62678;52.130;5.584;2022-09-02T14:49:19;27.60;99.90
11963;DHT22;62678;52.130;5.584;2022-09-02T14:51:49;27.90;99.90
11963;DHT22;62678;52.130;5.584;2022-09-02T14:54:34;28.30;99.90
11963;DHT22;62678;52.130;5.584;2022-09-02T14:57:02;27.90;99.90
11963;DHT22;62678;52.130;5.584;2022-09-02T14:59:29;28.10;99.90
11963;DHT22;62678;52.130;5.584;2022-09-02T15:01:57;28.60;99.90
11963;DHT22;62678;52.130;5.584;2022-09-02T15:04:25;29.20;99.90
11963;DHT22;62678;52.130;5.584;2022-09-02T15:06:53;30.00;99.90
11963;DHT22;62678;52.130;5.584;2022-09-02T15:09:21;30.60;99.90
11963;DHT22;62678;52.130;5.584;2022-09-02T15:11:50;31.00;99.90
11963;DHT22;62678;52.130;5.584;2022-09-02T15:14:18;31.20;99.90
11963;DHT22;62678;52.130;5.584;2022-09-02T15:16:45;31.00;99.90
11963;DHT22;62678;52.130;5.584;2022-09-02T15:19:13;31.40;99.90
11963;DHT22;62678;52.130;5.584;2022-09-02T15:21:39;31.50;99.90
11963;DHT22;62678;52.130;5.584;2022-09-02T15:24:07;31.40;99.90
11963;DHT22;62678;52.130;5.584;2022-09-02T15:26:34;31.50;99.90
11963;DHT22;62678;52.130;5.584;2022-09-02T15:29:02;31.50;99.90
11963;DHT22;62678;52.130;5.584;2022-09-02T15:31:29;32.10;99.90
11963;DHT22;62678;52.130;5.584;2022-09-02T15:33:56;32.10;99.90
11963;DHT22;62678;52.130;5.584;2022-09-02T15:36:23;31.60;99.90
11963;DHT22;62678;52.130;5.584;2022-09-02T15:38:50;32.10;99.90
11963;DHT22;62678;52.130;5.584;2022-09-02T15:41:20;32.30;99.90
11963;DHT22;62678;52.130;5.584;2022-09-02T15:43:47;32.20;99.90
11963;DHT22;62678;52.130;5.584;2022-09-02T15:46:23;32.00;99.90
11963;DHT22;62678;52.130;5.584;2022-09-02T15:48:50;31.00;99.90
11963;DHT22;62678;52.130;5.584;2022-09-02T15:51:19;30.30;99.90
11963;DHT22;62678;52.130;5.584;2022-09-02T15:53:46;29.50;99.90
11963;DHT22;62678;52.130;5.584;2022-09-02T15:56:15;29.50;99.90
11963;DHT22;62678;52.130;5.584;2022-09-02T15:58:44;29.20;99.90
11963;DHT22;62678;52.130;5.584;2022-09-02T16:01:11;28.40;99.90
11963;DHT22;62678;52.130;5.584;2022-09-02T16:03:38;28.40;99.90
11963;DHT22;62678;52.130;5.584;2022-09-02T16:06:06;28.30;99.90
11963;DHT22;62678;52.130;5.584;2022-09-02T16:08:34;28.00;99.90
11963;DHT22;62678;52.130;5.584;2022-09-02T16:11:05;28.00;99.90
11963;DHT22;62678;52.130;5.584;2022-09-02T16:13:34;27.70;99.90
11963;DHT22;62678;52.130;5.584;2022-09-02T16:16:04;27.60;99.90
11963;DHT22;62678;52.130;5.584;2022-09-02T16:18:32;27.50;99.90
11963;DHT22;62678;52.130;5.584;2022-09-02T16:20:59;27.30;99.90
11963;DHT22;62678;52.130;5.584;2022-09-02T16:23:26;27.40;99.90
11963;DHT22;62678;52.130;5.584;2022-09-02T16:26:09;27.10;99.90
11963;DHT22;62678;52.130;5.584;2022-09-02T16:28:36;27.00;99.90
11963;DHT22;62678;52.130;5.584;2022-09-02T16:31:06;26.90;99.90